sensor_id;sensor_type;location;lat;lon;timestamp;P1;durP1;ratioP1;P2;durP2;ratioP2
2896;SDS011;1458;49.728;9.228;2022-07-15T00:01:07;12.67;;;12.27;;
2896;SDS011;1458;49.728;9.228;2022-07-15T00:03:35;12.50;;;12.10;;
2896;SDS011;1458;49.728;9.228;2022-07-15T00:06:06;12.20;;;11.90;;
2896;SDS011;1458;49.728;9.228;2022-07-15T00:08:33;12.70;;;12.30;;
2896;SDS011;1458;49.728;9.228;2022-07-15T00:11:05;12.50;;;12.10;;
2896;SDS011;1458;49.728;9.228;2022-07-15T00:13:34;12.50;;;12.10;;
2896;SDS011;1458;49.728;9.228;2022-07-15T00:16:05;12.83;;;12.43;;
2896;SDS011;1458;49.728;9.228;2022-07-15T00:18:33;12.80;;;12.40;;
2896;SDS011;1458;49.728;9.228;2022-07-15T00:21:00;12.80;;;12.40;;
2896;SDS011;1458;49.728;9.228;2022-07-15T00:23:30;12.87;;;12.47;;
2896;SDS011;1458;49.728;9.228;2022-07-15T00:25:58;12.90;;;12.50;;
2896;SDS011;1458;49.728;9.228;2022-07-15T00:28:25;13.00;;;12.60;;
2896;SDS011;1458;49.728;9.228;2022-07-15T00:30:54;12.60;;;12.20;;
2896;SDS011;1458;49.728;9.228;2022-07-15T00:33:22;12.80;;;12.40;;
2896;SDS011;1458;49.728;9.228;2022-07-15T00:35:51;12.83;;;12.43;;
2896;SDS011;1458;49.728;9.228;2022-07-15T00:38:19;12.73;;;12.33;;
2896;SDS011;1458;49.728;9.228;2022-07-15T00:40:47;12.60;;;12.20;;
2896;SDS011;1458;49.728;9.228;2022-07-15T00:43:17;12.50;;;12.10;;
2896;SDS011;1458;49.728;9.228;2022-07-15T00:45:45;12.70;;;12.30;;
2896;SDS011;1458;49.728;9.228;2022-07-15T00:48:15;11.50;;;11.20;;
2896;SDS011;1458;49.728;9.228;2022-07-15T00:50:43;11.60;;;11.30;;
2896;SDS011;1458;49.728;9.228;2022-07-15T00:53:12;12.00;;;11.70;;
2896;SDS011;1458;49.728;9.228;2022-07-15T00:55:44;12.20;;;11.90;;
2896;SDS011;1458;49.728;9.228;2022-07-15T00:58:15;11.57;;;11.27;;
2896;SDS011;1458;49.728;9.228;2022-07-15T01:00:44;11.60;;;11.30;;
2896;SDS011;1458;49.728;9.228;2022-07-15T01:03:16;11.20;;;10.90;;
2896;SDS011;1458;49.728;9.228;2022-07-15T01:05:45;11.20;;;10.90;;
2896;SDS011;1458;49.728;9.228;2022-07-15T01:08:14;11.53;;;11.23;;
2896;SDS011;1458;49.728;9.228;2022-07-15T01:10:44;11.20;;;10.90;;
2896;SDS011;1458;49.728;9.228;2022-07-15T01:13:15;10.67;;;10.37;;
2896;SDS011;1458;49.728;9.228;2022-07-15T01:15:44;10.37;;;10.17;;
2896;SDS011;1458;49.728;9.228;2022-07-15T01:18:13;9.70;;;9.50;;
2896;SDS011;1458;49.728;9.228;2022-07-15T01:20:44;10.60;;;10.30;;
2896;SDS011;1458;49.728;9.228;2022-07-15T01:23:14;10.80;;;10.50;;
2896;SDS011;1458;49.728;9.228;2022-07-15T01:25:47;10.90;;;10.60;;
2896;SDS011;1458;49.728;9.228;2022-07-15T01:28:15;11.00;;;10.70;;
2896;SDS011;1458;49.728;9.228;2022-07-15T01:30:46;9.87;;;9.67;;
2896;SDS011;1458;49.728;9.228;2022-07-15T01:33:15;10.40;;;10.20;;
2896;SDS011;1458;49.728;9.228;2022-07-15T01:35:44;10.30;;;10.10;;
2896;SDS011;1458;49.728;9.228;2022-07-15T01:38:12;10.80;;;10.50;;
2896;SDS011;1458;49.728;9.228;2022-07-15T01:40:40;10.40;;;10.20;;
2896;SDS011;1458;49.728;9.228;2022-07-15T01:43:09;10.20;;;10.00;;
2896;SDS011;1458;49.728;9.228;2022-07-15T01:45:37;10.40;;;10.20;;
2896;SDS011;1458;49.728;9.228;2022-07-15T01:48:10;10.47;;;10.27;;
2896;SDS011;1458;49.728;9.228;2022-07-15T01:51:05;10.40;;;10.20;;
2896;SDS011;1458;49.728;9.228;2022-07-15T01:53:33;10.23;;;10.03;;
2896;SDS011;1458;49.728;9.228;2022-07-15T01:56:04;10.10;;;9.90;;
2896;SDS011;1458;49.728;9.228;2022-07-15T01:58:34;10.10;;;9.90;;
2896;SDS011;1458;49.728;9.228;2022-07-15T02:01:01;10.00;;;9.80;;
2896;SDS011;1458;49.728;9.228;2022-07-15T02:03:34;9.37;;;9.17;;
2896;SDS011;1458;49.728;9.228;2022-07-15T02:06:07;9.40;;;9.20;;
2896;SDS011;1458;49.728;9.228;2022-07-15T02:08:37;9.20;;;9.00;;
2896;SDS011;1458;49.728;9.228;2022-07-15T02:11:09;9.10;;;8.90;;
2896;SDS011;1458;49.728;9.228;2022-07-15T02:13:37;8.80;;;8.70;;
2896;SDS011;1458;49.728;9.228;2022-07-15T02:16:05;9.00;;;8.80;;
2896;SDS011;1458;49.728;9.228;2022-07-15T02:18:34;8.60;;;8.50;;
2896;SDS011;1458;49.728;9.228;2022-07-15T02:21:01;8.40;;;8.30;;
2896;SDS011;1458;49.728;9.228;2022-07-15T02:23:33;8.07;;;7.97;;
2896;SDS011;1458;49.728;9.228;2022-07-15T02:26:01;8.10;;;8.00;;
2896;SDS011;1458;49.728;9.228;2022-07-15T02:28:33;7.10;;;7.00;;
2896;SDS011;1458;49.728;9.228;2022-07-15T02:31:09;7.10;;;7.00;;
2896;SDS011;1458;49.728;9.228;2022-07-15T02:33:41;6.90;;;6.80;;
2896;SDS011;1458;49.728;9.228;2022-07-15T02:36:09;7.20;;;7.10;;
2896;SDS011;1458;49.728;9.228;2022-07-15T02:38:45;6.90;;;6.80;;
2896;SDS011;1458;49.728;9.228;2022-07-15T02:41:16;6.97;;;6.87;;
2896;SDS011;1458;49.728;9.228;2022-07-15T02:43:46;6.50;;;6.50;;
2896;SDS011;1458;49.728;9.228;2022-07-15T02:46:15;6.97;;;6.87;;
2896;SDS011;1458;49.728;9.228;2022-07-15T02:48:44;6.60;;;6.60;;
2896;SDS011;1458;49.728;9.228;2022-07-15T02:51:12;6.90;;;6.80;;
2896;SDS011;1458;49.728;9.228;2022-07-15T02:53:43;6.90;;;6.80;;
2896;SDS011;1458;49.728;9.228;2022-07-15T02:56:18;6.40;;;6.40;;
2896;SDS011;1458;49.728;9.228;2022-07-15T02:58:45;6.50;;;6.50;;
2896;SDS011;1458;49.728;9.228;2022-07-15T03:01:14;6.27;;;6.27;;
2896;SDS011;1458;49.728;9.228;2022-07-15T03:03:45;6.10;;;6.10;;
2896;SDS011;1458;49.728;9.228;2022-07-15T03:06:19;5.90;;;5.90;;
2896;SDS011;1458;49.728;9.228;2022-07-15T03:08:48;6.07;;;6.07;;
2896;SDS011;1458;49.728;9.228;2022-07-15T03:11:18;6.13;;;6.13;;
2896;SDS011;1458;49.728;9.228;2022-07-15T03:13:48;6.10;;;6.10;;
2896;SDS011;1458;49.728;9.228;2022-07-15T03:16:15;6.10;;;6.10;;
2896;SDS011;1458;49.728;9.228;2022-07-15T03:18:46;5.30;;;5.30;;
2896;SDS011;1458;49.728;9.228;2022-07-15T03:21:16;5.80;;;5.80;;
2896;SDS011;1458;49.728;9.228;2022-07-15T03:23:48;5.37;;;5.37;;
2896;SDS011;1458;49.728;9.228;2022-07-15T03:26:17;5.60;;;5.60;;
2896;SDS011;1458;49.728;9.228;2022-07-15T03:28:47;5.40;;;5.40;;
2896;SDS011;1458;49.728;9.228;2022-07-15T03:31:15;5.50;;;5.50;;
2896;SDS011;1458;49.728;9.228;2022-07-15T03:33:46;5.63;;;5.63;;
2896;SDS011;1458;49.728;9.228;2022-07-15T03:36:14;6.00;;;6.00;;
2896;SDS011;1458;49.728;9.228;2022-07-15T03:38:43;6.00;;;6.00;;
2896;SDS011;1458;49.728;9.228;2022-07-15T03:41:12;6.30;;;6.30;;
2896;SDS011;1458;49.728;9.228;2022-07-15T03:43:40;6.30;;;6.30;;
2896;SDS011;1458;49.728;9.228;2022-07-15T03:46:08;6.40;;;6.40;;
2896;SDS011;1458;49.728;9.228;2022-07-15T03:48:39;6.20;;;6.20;;
2896;SDS011;1458;49.728;9.228;2022-07-15T03:51:07;6.40;;;6.40;;
2896;SDS011;1458;49.728;9.228;2022-07-15T03:53:36;6.50;;;6.50;;
2896;SDS011;1458;49.728;9.228;2022-07-15T03:56:07;6.60;;;6.60;;
2896;SDS011;1458;49.728;9.228;2022-07-15T03:58:35;6.60;;;6.60;;
2896;SDS011;1458;49.728;9.228;2022-07-15T04:01:06;6.70;;;6.70;;
2896;SDS011;1458;49.728;9.228;2022-07-15T04:03:34;6.80;;;6.70;;
2896;SDS011;1458;49.728;9.228;2022-07-15T04:06:02;7.40;;;7.30;;
2896;SDS011;1458;49.728;9.228;2022-07-15T04:08:32;7.10;;;7.00;;
2896;SDS011;1458;49.728;9.228;2022-07-15T04:11:00;7.00;;;6.90;;
2896;SDS011;1458;49.728;9.228;2022-07-15T04:13:29;6.90;;;6.80;;
2896;SDS011;1458;49.728;9.228;2022-07-15T04:15:59;6.90;;;6.80;;
2896;SDS011;1458;49.728;9.228;2022-07-15T04:18:26;7.00;;;6.90;;
2896;SDS011;1458;49.728;9.228;2022-07-15T04:20:55;7.37;;;7.27;;
2896;SDS011;1458;49.728;9.228;2022-07-15T04:23:25;7.10;;;7.00;;
2896;SDS011;1458;49.728;9.228;2022-07-15T04:25:57;7.70;;;7.60;;
2896;SDS011;1458;49.728;9.228;2022-07-15T04:28:25;7.80;;;7.70;;
2896;SDS011;1458;49.728;9.228;2022-07-15T04:30:53;8.00;;;7.90;;
2896;SDS011;1458;49.728;9.228;2022-07-15T04:33:23;8.50;;;8.40;;
2896;SDS011;1458;49.728;9.228;2022-07-15T04:35:51;9.30;;;9.10;;
2896;SDS011;1458;49.728;9.228;2022-07-15T04:38:22;9.20;;;9.00;;
2896;SDS011;1458;49.728;9.228;2022-07-15T04:40:50;9.40;;;9.20;;
2896;SDS011;1458;49.728;9.228;2022-07-15T04:43:18;9.70;;;9.50;;
2896;SDS011;1458;49.728;9.228;2022-07-15T04:45:46;11.00;;;10.70;;
2896;SDS011;1458;49.728;9.228;2022-07-15T04:48:18;12.00;;;11.70;;
2896;SDS011;1458;49.728;9.228;2022-07-15T04:51:07;12.80;;;12.40;;
2896;SDS011;1458;49.728;9.228;2022-07-15T04:53:37;13.10;;;12.70;;
2896;SDS011;1458;49.728;9.228;2022-07-15T04:56:05;13.40;;;12.90;;
2896;SDS011;1458;49.728;9.228;2022-07-15T04:58:35;13.50;;;13.00;;
2896;SDS011;1458;49.728;9.228;2022-07-15T05:01:05;13.83;;;13.33;;
2896;SDS011;1458;49.728;9.228;2022-07-15T05:03:32;13.97;;;13.47;;
2896;SDS011;1458;49.728;9.228;2022-07-15T05:06:01;13.90;;;13.40;;
2896;SDS011;1458;49.728;9.228;2022-07-15T05:08:36;14.00;;;13.50;;
2896;SDS011;1458;49.728;9.228;2022-07-15T05:11:07;13.90;;;13.40;;
2896;SDS011;1458;49.728;9.228;2022-07-15T05:13:35;13.50;;;13.00;;
2896;SDS011;1458;49.728;9.228;2022-07-15T05:16:05;13.50;;;13.00;;
2896;SDS011;1458;49.728;9.228;2022-07-15T05:18:35;14.20;;;13.70;;
2896;SDS011;1458;49.728;9.228;2022-07-15T05:21:06;13.90;;;13.40;;
2896;SDS011;1458;49.728;9.228;2022-07-15T05:23:40;14.27;;;13.77;;
2896;SDS011;1458;49.728;9.228;2022-07-15T05:26:08;14.03;;;13.53;;
2896;SDS011;1458;49.728;9.228;2022-07-15T05:28:39;13.57;;;13.07;;
2896;SDS011;1458;49.728;9.228;2022-07-15T05:31:06;13.80;;;13.30;;
2896;SDS011;1458;49.728;9.228;2022-07-15T05:33:34;13.90;;;13.40;;
2896;SDS011;1458;49.728;9.228;2022-07-15T05:36:05;13.60;;;13.10;;
2896;SDS011;1458;49.728;9.228;2022-07-15T05:38:41;13.80;;;13.30;;
2896;SDS011;1458;49.728;9.228;2022-07-15T05:41:09;13.87;;;13.37;;
2896;SDS011;1458;49.728;9.228;2022-07-15T05:43:37;13.50;;;13.00;;
2896;SDS011;1458;49.728;9.228;2022-07-15T05:46:05;14.00;;;13.50;;
2896;SDS011;1458;49.728;9.228;2022-07-15T05:48:42;13.80;;;13.30;;
2896;SDS011;1458;49.728;9.228;2022-07-15T05:51:12;13.70;;;13.20;;
2896;SDS011;1458;49.728;9.228;2022-07-15T05:53:44;13.10;;;12.70;;
2896;SDS011;1458;49.728;9.228;2022-07-15T05:56:11;13.40;;;12.90;;
2896;SDS011;1458;49.728;9.228;2022-07-15T05:58:39;13.70;;;13.20;;
2896;SDS011;1458;49.728;9.228;2022-07-15T06:01:06;13.77;;;13.27;;
2896;SDS011;1458;49.728;9.228;2022-07-15T06:03:38;13.87;;;13.37;;
2896;SDS011;1458;49.728;9.228;2022-07-15T06:06:06;13.90;;;13.40;;
2896;SDS011;1458;49.728;9.228;2022-07-15T06:08:36;13.70;;;13.20;;
2896;SDS011;1458;49.728;9.228;2022-07-15T06:11:08;14.00;;;13.50;;
2896;SDS011;1458;49.728;9.228;2022-07-15T06:13:37;13.80;;;13.30;;
2896;SDS011;1458;49.728;9.228;2022-07-15T06:16:05;14.10;;;13.60;;
2896;SDS011;1458;49.728;9.228;2022-07-15T06:18:34;14.13;;;13.63;;
2896;SDS011;1458;49.728;9.228;2022-07-15T06:21:02;14.10;;;13.60;;
2896;SDS011;1458;49.728;9.228;2022-07-15T06:23:32;14.00;;;13.50;;
2896;SDS011;1458;49.728;9.228;2022-07-15T06:26:00;13.90;;;13.40;;
2896;SDS011;1458;49.728;9.228;2022-07-15T06:28:32;13.50;;;13.00;;
2896;SDS011;1458;49.728;9.228;2022-07-15T06:31:00;13.77;;;13.27;;
2896;SDS011;1458;49.728;9.228;2022-07-15T06:33:32;13.50;;;13.00;;
2896;SDS011;1458;49.728;9.228;2022-07-15T06:36:00;14.20;;;13.70;;
2896;SDS011;1458;49.728;9.228;2022-07-15T06:38:30;13.30;;;12.90;;
2896;SDS011;1458;49.728;9.228;2022-07-15T06:40:58;14.00;;;13.50;;
2896;SDS011;1458;49.728;9.228;2022-07-15T06:43:26;13.30;;;12.90;;
2896;SDS011;1458;49.728;9.228;2022-07-15T06:46:12;13.30;;;12.90;;
2896;SDS011;1458;49.728;9.228;2022-07-15T06:48:40;13.40;;;13.00;;
2896;SDS011;1458;49.728;9.228;2022-07-15T06:51:08;13.53;;;13.03;;
2896;SDS011;1458;49.728;9.228;2022-07-15T06:53:37;13.70;;;13.20;;
2896;SDS011;1458;49.728;9.228;2022-07-15T06:56:06;13.60;;;13.10;;
2896;SDS011;1458;49.728;9.228;2022-07-15T06:58:34;13.27;;;12.87;;
2896;SDS011;1458;49.728;9.228;2022-07-15T07:01:07;13.80;;;13.30;;
2896;SDS011;1458;49.728;9.228;2022-07-15T07:03:37;13.50;;;13.00;;
2896;SDS011;1458;49.728;9.228;2022-07-15T07:06:06;13.97;;;13.47;;
2896;SDS011;1458;49.728;9.228;2022-07-15T07:08:34;13.80;;;13.30;;
2896;SDS011;1458;49.728;9.228;2022-07-15T07:11:01;13.30;;;12.90;;
2896;SDS011;1458;49.728;9.228;2022-07-15T07:13:32;13.50;;;13.00;;
2896;SDS011;1458;49.728;9.228;2022-07-15T07:15:59;13.50;;;13.10;;
2896;SDS011;1458;49.728;9.228;2022-07-15T07:18:27;13.63;;;13.13;;
2896;SDS011;1458;49.728;9.228;2022-07-15T07:20:56;13.00;;;12.60;;
2896;SDS011;1458;49.728;9.228;2022-07-15T07:23:23;13.80;;;13.30;;
2896;SDS011;1458;49.728;9.228;2022-07-15T07:25:51;13.40;;;13.00;;
2896;SDS011;1458;49.728;9.228;2022-07-15T07:28:19;13.80;;;13.30;;
2896;SDS011;1458;49.728;9.228;2022-07-15T07:30:47;13.80;;;13.30;;
2896;SDS011;1458;49.728;9.228;2022-07-15T07:33:17;13.80;;;13.30;;
2896;SDS011;1458;49.728;9.228;2022-07-15T07:35:45;13.30;;;12.90;;
2896;SDS011;1458;49.728;9.228;2022-07-15T07:38:14;13.33;;;12.93;;
2896;SDS011;1458;49.728;9.228;2022-07-15T07:40:42;13.80;;;13.30;;
2896;SDS011;1458;49.728;9.228;2022-07-15T07:43:09;13.70;;;13.20;;
2896;SDS011;1458;49.728;9.228;2022-07-15T07:45:37;13.80;;;13.30;;
2896;SDS011;1458;49.728;9.228;2022-07-15T07:48:05;13.80;;;13.30;;
2896;SDS011;1458;49.728;9.228;2022-07-15T07:50:32;13.30;;;12.90;;
2896;SDS011;1458;49.728;9.228;2022-07-15T07:53:00;13.50;;;13.00;;
2896;SDS011;1458;49.728;9.228;2022-07-15T07:55:29;13.60;;;13.10;;
2896;SDS011;1458;49.728;9.228;2022-07-15T07:57:57;13.47;;;13.07;;
2896;SDS011;1458;49.728;9.228;2022-07-15T08:00:26;13.83;;;13.37;;
2896;SDS011;1458;49.728;9.228;2022-07-15T08:02:56;13.80;;;13.30;;
2896;SDS011;1458;49.728;9.228;2022-07-15T08:05:26;13.40;;;13.00;;
2896;SDS011;1458;49.728;9.228;2022-07-15T08:08:08;13.80;;;13.30;;
2896;SDS011;1458;49.728;9.228;2022-07-15T08:10:39;13.87;;;13.37;;
2896;SDS011;1458;49.728;9.228;2022-07-15T08:13:08;14.00;;;13.50;;
2896;SDS011;1458;49.728;9.228;2022-07-15T08:15:38;14.40;;;13.90;;
2896;SDS011;1458;49.728;9.228;2022-07-15T08:18:05;14.03;;;13.53;;
2896;SDS011;1458;49.728;9.228;2022-07-15T08:20:33;14.53;;;14.03;;
2896;SDS011;1458;49.728;9.228;2022-07-15T08:23:01;14.10;;;13.60;;
2896;SDS011;1458;49.728;9.228;2022-07-15T08:25:31;14.23;;;13.73;;
2896;SDS011;1458;49.728;9.228;2022-07-15T08:28:03;14.50;;;14.00;;
2896;SDS011;1458;49.728;9.228;2022-07-15T08:30:32;14.00;;;13.50;;
2896;SDS011;1458;49.728;9.228;2022-07-15T08:33:01;14.07;;;13.57;;
2896;SDS011;1458;49.728;9.228;2022-07-15T08:35:29;14.10;;;13.60;;
2896;SDS011;1458;49.728;9.228;2022-07-15T08:37:58;14.07;;;13.57;;
2896;SDS011;1458;49.728;9.228;2022-07-15T08:40:32;13.70;;;13.20;;
2896;SDS011;1458;49.728;9.228;2022-07-15T08:43:00;13.77;;;13.27;;
2896;SDS011;1458;49.728;9.228;2022-07-15T08:45:29;13.80;;;13.30;;
2896;SDS011;1458;49.728;9.228;2022-07-15T08:47:57;14.57;;;14.07;;
2896;SDS011;1458;49.728;9.228;2022-07-15T08:50:28;13.57;;;13.10;;
2896;SDS011;1458;49.728;9.228;2022-07-15T08:52:56;13.80;;;13.30;;
2896;SDS011;1458;49.728;9.228;2022-07-15T08:55:24;14.23;;;13.73;;
2896;SDS011;1458;49.728;9.228;2022-07-15T08:57:52;14.03;;;13.53;;
2896;SDS011;1458;49.728;9.228;2022-07-15T09:00:22;13.80;;;13.30;;
2896;SDS011;1458;49.728;9.228;2022-07-15T09:02:54;14.07;;;13.57;;
2896;SDS011;1458;49.728;9.228;2022-07-15T09:05:25;14.23;;;13.73;;
2896;SDS011;1458;49.728;9.228;2022-07-15T09:07:56;13.60;;;13.20;;
2896;SDS011;1458;49.728;9.228;2022-07-15T09:10:46;13.70;;;13.20;;
2896;SDS011;1458;49.728;9.228;2022-07-15T09:13:24;13.23;;;12.83;;
2896;SDS011;1458;49.728;9.228;2022-07-15T09:15:57;13.77;;;13.27;;
2896;SDS011;1458;49.728;9.228;2022-07-15T09:18:32;13.30;;;12.90;;
2896;SDS011;1458;49.728;9.228;2022-07-15T09:21:04;13.80;;;13.30;;
2896;SDS011;1458;49.728;9.228;2022-07-15T09:23:42;14.00;;;13.50;;
2896;SDS011;1458;49.728;9.228;2022-07-15T09:26:22;13.90;;;13.40;;
2896;SDS011;1458;49.728;9.228;2022-07-15T09:28:52;14.10;;;13.60;;
2896;SDS011;1458;49.728;9.228;2022-07-15T09:31:29;14.03;;;13.53;;
2896;SDS011;1458;49.728;9.228;2022-07-15T09:34:15;13.40;;;13.00;;
2896;SDS011;1458;49.728;9.228;2022-07-15T09:36:44;13.60;;;13.20;;
2896;SDS011;1458;49.728;9.228;2022-07-15T09:39:16;13.50;;;13.10;;
2896;SDS011;1458;49.728;9.228;2022-07-15T09:41:45;13.67;;;13.17;;
2896;SDS011;1458;49.728;9.228;2022-07-15T09:44:14;14.00;;;13.50;;
2896;SDS011;1458;49.728;9.228;2022-07-15T09:46:45;13.60;;;13.20;;
2896;SDS011;1458;49.728;9.228;2022-07-15T09:49:15;13.70;;;13.30;;
2896;SDS011;1458;49.728;9.228;2022-07-15T09:51:59;14.00;;;13.53;;
2896;SDS011;1458;49.728;9.228;2022-07-15T09:54:29;13.50;;;13.10;;
2896;SDS011;1458;49.728;9.228;2022-07-15T09:57:00;13.50;;;13.10;;
2896;SDS011;1458;49.728;9.228;2022-07-15T09:59:31;13.93;;;13.43;;
2896;SDS011;1458;49.728;9.228;2022-07-15T10:02:00;14.40;;;13.90;;
2896;SDS011;1458;49.728;9.228;2022-07-15T10:04:28;14.20;;;13.70;;
2896;SDS011;1458;49.728;9.228;2022-07-15T10:06:57;14.10;;;13.60;;
2896;SDS011;1458;49.728;9.228;2022-07-15T10:09:26;14.03;;;13.53;;
2896;SDS011;1458;49.728;9.228;2022-07-15T10:11:56;13.80;;;13.30;;
2896;SDS011;1458;49.728;9.228;2022-07-15T10:14:32;14.70;;;14.20;;
2896;SDS011;1458;49.728;9.228;2022-07-15T10:17:29;14.43;;;13.93;;
2896;SDS011;1458;49.728;9.228;2022-07-15T10:20:33;13.70;;;13.20;;
2896;SDS011;1458;49.728;9.228;2022-07-15T10:23:21;13.80;;;13.30;;
2896;SDS011;1458;49.728;9.228;2022-07-15T10:26:06;14.00;;;13.50;;
2896;SDS011;1458;49.728;9.228;2022-07-15T10:28:50;13.90;;;13.40;;
2896;SDS011;1458;49.728;9.228;2022-07-15T10:31:22;13.80;;;13.30;;
2896;SDS011;1458;49.728;9.228;2022-07-15T10:36:56;13.60;;;13.20;;
2896;SDS011;1458;49.728;9.228;2022-07-15T10:45:26;14.30;;;13.80;;
2896;SDS011;1458;49.728;9.228;2022-07-15T10:50:58;14.30;;;13.80;;
2896;SDS011;1458;49.728;9.228;2022-07-15T10:53:25;14.33;;;13.83;;
2896;SDS011;1458;49.728;9.228;2022-07-15T10:55:54;14.67;;;14.17;;
2896;SDS011;1458;49.728;9.228;2022-07-15T10:58:22;14.67;;;14.17;;
2896;SDS011;1458;49.728;9.228;2022-07-15T11:00:49;14.40;;;13.90;;
2896;SDS011;1458;49.728;9.228;2022-07-15T11:03:18;14.80;;;14.30;;
2896;SDS011;1458;49.728;9.228;2022-07-15T11:06:06;14.10;;;13.60;;
2896;SDS011;1458;49.728;9.228;2022-07-15T11:08:50;14.00;;;13.50;;
2896;SDS011;1458;49.728;9.228;2022-07-15T11:17:11;14.30;;;13.80;;
2896;SDS011;1458;49.728;9.228;2022-07-15T11:19:42;14.40;;;13.90;;
2896;SDS011;1458;49.728;9.228;2022-07-15T11:22:20;14.20;;;13.70;;
2896;SDS011;1458;49.728;9.228;2022-07-15T11:24:50;14.53;;;14.03;;
2896;SDS011;1458;49.728;9.228;2022-07-15T11:27:19;14.30;;;13.80;;
2896;SDS011;1458;49.728;9.228;2022-07-15T11:29:48;15.00;;;14.50;;
2896;SDS011;1458;49.728;9.228;2022-07-15T11:32:18;14.50;;;14.00;;
2896;SDS011;1458;49.728;9.228;2022-07-15T11:34:49;14.27;;;13.77;;
2896;SDS011;1458;49.728;9.228;2022-07-15T11:37:24;14.50;;;14.00;;
2896;SDS011;1458;49.728;9.228;2022-07-15T11:40:05;14.50;;;14.00;;
2896;SDS011;1458;49.728;9.228;2022-07-15T11:42:37;15.00;;;14.43;;
2896;SDS011;1458;49.728;9.228;2022-07-15T11:48:05;14.40;;;13.90;;
2896;SDS011;1458;49.728;9.228;2022-07-15T11:50:33;13.93;;;13.50;;
2896;SDS011;1458;49.728;9.228;2022-07-15T11:53:02;14.40;;;13.90;;
2896;SDS011;1458;49.728;9.228;2022-07-15T11:55:46;14.37;;;13.87;;
2896;SDS011;1458;49.728;9.228;2022-07-15T11:58:27;14.80;;;14.30;;
2896;SDS011;1458;49.728;9.228;2022-07-15T12:00:58;14.10;;;13.60;;
2896;SDS011;1458;49.728;9.228;2022-07-15T12:03:30;14.10;;;13.60;;
2896;SDS011;1458;49.728;9.228;2022-07-15T12:06:06;14.30;;;13.80;;
2896;SDS011;1458;49.728;9.228;2022-07-15T12:08:43;14.00;;;13.50;;
2896;SDS011;1458;49.728;9.228;2022-07-15T12:11:14;14.37;;;13.87;;
2896;SDS011;1458;49.728;9.228;2022-07-15T12:13:53;14.10;;;13.60;;
2896;SDS011;1458;49.728;9.228;2022-07-15T12:16:25;13.80;;;13.40;;
2896;SDS011;1458;49.728;9.228;2022-07-15T12:18:56;14.50;;;14.00;;
2896;SDS011;1458;49.728;9.228;2022-07-15T12:21:26;14.40;;;13.90;;
2896;SDS011;1458;49.728;9.228;2022-07-15T12:24:04;14.20;;;13.70;;
2896;SDS011;1458;49.728;9.228;2022-07-15T12:26:35;13.90;;;13.40;;
2896;SDS011;1458;49.728;9.228;2022-07-15T12:29:08;13.83;;;13.33;;
2896;SDS011;1458;49.728;9.228;2022-07-15T12:31:38;13.70;;;13.30;;
2896;SDS011;1458;49.728;9.228;2022-07-15T12:34:08;14.10;;;13.60;;
2896;SDS011;1458;49.728;9.228;2022-07-15T12:36:36;13.90;;;13.40;;
2896;SDS011;1458;49.728;9.228;2022-07-15T12:39:07;14.10;;;13.60;;
2896;SDS011;1458;49.728;9.228;2022-07-15T12:41:42;13.90;;;13.40;;
2896;SDS011;1458;49.728;9.228;2022-07-15T12:44:11;14.00;;;13.50;;
2896;SDS011;1458;49.728;9.228;2022-07-15T12:46:49;13.80;;;13.30;;
2896;SDS011;1458;49.728;9.228;2022-07-15T12:52:13;13.77;;;13.30;;
2896;SDS011;1458;49.728;9.228;2022-07-15T12:54:45;13.60;;;13.20;;
2896;SDS011;1458;49.728;9.228;2022-07-15T13:00:04;14.17;;;13.67;;
2896;SDS011;1458;49.728;9.228;2022-07-15T13:02:55;13.70;;;13.30;;
2896;SDS011;1458;49.728;9.228;2022-07-15T13:05:31;13.73;;;13.33;;
2896;SDS011;1458;49.728;9.228;2022-07-15T13:08:02;14.20;;;13.70;;
2896;SDS011;1458;49.728;9.228;2022-07-15T13:10:33;14.10;;;13.60;;
2896;SDS011;1458;49.728;9.228;2022-07-15T13:13:02;13.80;;;13.30;;
2896;SDS011;1458;49.728;9.228;2022-07-15T13:15:31;14.10;;;13.60;;
2896;SDS011;1458;49.728;9.228;2022-07-15T13:17:59;13.50;;;13.10;;
2896;SDS011;1458;49.728;9.228;2022-07-15T13:20:27;13.50;;;13.10;;
2896;SDS011;1458;49.728;9.228;2022-07-15T13:22:55;13.70;;;13.30;;
2896;SDS011;1458;49.728;9.228;2022-07-15T13:25:24;13.30;;;12.90;;
2896;SDS011;1458;49.728;9.228;2022-07-15T13:27:54;14.00;;;13.50;;
2896;SDS011;1458;49.728;9.228;2022-07-15T13:30:22;14.10;;;13.60;;
2896;SDS011;1458;49.728;9.228;2022-07-15T13:32:49;13.90;;;13.40;;
2896;SDS011;1458;49.728;9.228;2022-07-15T13:35:17;14.00;;;13.50;;
2896;SDS011;1458;49.728;9.228;2022-07-15T13:37:44;13.90;;;13.40;;
2896;SDS011;1458;49.728;9.228;2022-07-15T13:40:12;14.23;;;13.73;;
2896;SDS011;1458;49.728;9.228;2022-07-15T13:42:42;13.90;;;13.40;;
2896;SDS011;1458;49.728;9.228;2022-07-15T13:45:11;14.20;;;13.70;;
2896;SDS011;1458;49.728;9.228;2022-07-15T13:47:40;13.80;;;13.40;;
2896;SDS011;1458;49.728;9.228;2022-07-15T13:50:08;13.60;;;13.20;;
2896;SDS011;1458;49.728;9.228;2022-07-15T13:52:55;13.50;;;13.10;;
2896;SDS011;1458;49.728;9.228;2022-07-15T13:55:24;13.80;;;13.30;;
2896;SDS011;1458;49.728;9.228;2022-07-15T13:57:52;13.93;;;13.43;;
2896;SDS011;1458;49.728;9.228;2022-07-15T14:00:22;13.90;;;13.40;;
2896;SDS011;1458;49.728;9.228;2022-07-15T14:02:51;13.63;;;13.23;;
2896;SDS011;1458;49.728;9.228;2022-07-15T14:05:21;13.80;;;13.30;;
2896;SDS011;1458;49.728;9.228;2022-07-15T14:07:50;13.80;;;13.30;;
2896;SDS011;1458;49.728;9.228;2022-07-15T14:10:19;13.73;;;13.30;;
2896;SDS011;1458;49.728;9.228;2022-07-15T14:12:47;13.60;;;13.20;;
2896;SDS011;1458;49.728;9.228;2022-07-15T14:15:14;14.00;;;13.50;;
2896;SDS011;1458;49.728;9.228;2022-07-15T14:17:43;13.80;;;13.30;;
2896;SDS011;1458;49.728;9.228;2022-07-15T14:20:10;13.77;;;13.27;;
2896;SDS011;1458;49.728;9.228;2022-07-15T14:22:40;14.40;;;13.90;;
2896;SDS011;1458;49.728;9.228;2022-07-15T14:25:08;13.97;;;13.47;;
2896;SDS011;1458;49.728;9.228;2022-07-15T14:27:36;14.10;;;13.60;;
2896;SDS011;1458;49.728;9.228;2022-07-15T14:30:04;14.70;;;14.20;;
2896;SDS011;1458;49.728;9.228;2022-07-15T14:32:35;14.10;;;13.60;;
2896;SDS011;1458;49.728;9.228;2022-07-15T14:35:04;14.23;;;13.73;;
2896;SDS011;1458;49.728;9.228;2022-07-15T14:37:33;14.00;;;13.50;;
2896;SDS011;1458;49.728;9.228;2022-07-15T14:40:00;14.40;;;13.90;;
2896;SDS011;1458;49.728;9.228;2022-07-15T14:42:31;14.30;;;13.80;;
2896;SDS011;1458;49.728;9.228;2022-07-15T14:44:59;14.10;;;13.60;;
2896;SDS011;1458;49.728;9.228;2022-07-15T14:47:27;14.70;;;14.20;;
2896;SDS011;1458;49.728;9.228;2022-07-15T14:49:54;14.53;;;14.03;;
2896;SDS011;1458;49.728;9.228;2022-07-15T14:52:23;14.30;;;13.80;;
2896;SDS011;1458;49.728;9.228;2022-07-15T14:54:51;14.20;;;13.70;;
2896;SDS011;1458;49.728;9.228;2022-07-15T14:57:18;14.10;;;13.60;;
2896;SDS011;1458;49.728;9.228;2022-07-15T14:59:46;14.13;;;13.63;;
2896;SDS011;1458;49.728;9.228;2022-07-15T15:02:13;14.33;;;13.83;;
2896;SDS011;1458;49.728;9.228;2022-07-15T15:04:41;14.20;;;13.70;;
2896;SDS011;1458;49.728;9.228;2022-07-15T15:07:08;14.30;;;13.80;;
2896;SDS011;1458;49.728;9.228;2022-07-15T15:09:37;13.90;;;13.40;;
2896;SDS011;1458;49.728;9.228;2022-07-15T15:12:05;14.10;;;13.60;;
2896;SDS011;1458;49.728;9.228;2022-07-15T15:14:33;14.00;;;13.50;;
2896;SDS011;1458;49.728;9.228;2022-07-15T15:17:01;14.10;;;13.60;;
2896;SDS011;1458;49.728;9.228;2022-07-15T15:19:28;14.20;;;13.70;;
2896;SDS011;1458;49.728;9.228;2022-07-15T15:21:56;14.00;;;13.50;;
2896;SDS011;1458;49.728;9.228;2022-07-15T15:24:24;13.80;;;13.30;;
2896;SDS011;1458;49.728;9.228;2022-07-15T15:26:53;14.00;;;13.50;;
2896;SDS011;1458;49.728;9.228;2022-07-15T15:29:21;14.00;;;13.50;;
2896;SDS011;1458;49.728;9.228;2022-07-15T15:31:49;13.80;;;13.30;;
2896;SDS011;1458;49.728;9.228;2022-07-15T15:34:17;14.07;;;13.57;;
2896;SDS011;1458;49.728;9.228;2022-07-15T15:36:45;13.90;;;13.40;;
2896;SDS011;1458;49.728;9.228;2022-07-15T15:39:13;14.23;;;13.73;;